createdAt,value
2024-04-06T00:00:24.545Z,62.23
2024-04-06T00:02:51.174Z,62.20
2024-04-06T00:05:19.343Z,62.26
2024-04-06T00:07:49.681Z,62.15
2024-04-06T00:10:16.906Z,62.34
2024-04-06T00:12:43.455Z,62.43
2024-04-06T00:15:09.987Z,62.43
2024-04-06T00:17:36.912Z,62.54
2024-04-06T00:20:04.659Z,62.68
2024-04-06T00:22:31.280Z,62.81
2024-04-06T00:24:57.868Z,62.68
2024-04-06T00:27:24.524Z,62.60
2024-04-06T00:29:51.020Z,62.56
2024-04-06T00:32:17.597Z,62.58
2024-04-06T00:34:44.246Z,62.62
2024-04-06T00:37:10.795Z,62.50
2024-04-06T00:39:38.755Z,62.63
2024-04-06T00:42:05.451Z,62.67
2024-04-06T00:44:32.134Z,62.77
2024-04-06T00:47:03.008Z,62.86
2024-04-06T00:49:30.052Z,62.91
2024-04-06T00:51:56.672Z,63.12
2024-04-06T00:54:24.463Z,63.30
2024-04-06T00:56:51.931Z,64.77
2024-04-06T00:59:18.837Z,65.17
2024-04-06T01:01:57.139Z,65.50
2024-04-06T01:04:30.997Z,65.33
2024-04-06T01:06:57.755Z,65.01
2024-04-06T01:09:25.078Z,65.18
2024-04-06T01:11:51.781Z,64.92
2024-04-06T01:14:18.629Z,65.84
2024-04-06T01:16:45.174Z,65.80
2024-04-06T01:19:11.762Z,66.28
2024-04-06T01:21:38.641Z,65.95
2024-04-06T01:24:06.595Z,66.04
2024-04-06T01:26:33.143Z,66.40
2024-04-06T01:28:59.774Z,66.40
2024-04-06T01:31:26.337Z,66.55
2024-04-06T01:33:52.898Z,66.79
2024-04-06T01:36:19.506Z,66.64
2024-04-06T01:38:46.249Z,66.88
2024-04-06T01:41:12.921Z,67.02
2024-04-06T01:43:39.576Z,67.27
2024-04-06T01:46:06.355Z,67.46
2024-04-06T01:48:32.959Z,67.37
2024-04-06T01:50:59.545Z,67.32
2024-04-06T01:53:26.146Z,67.16
2024-04-06T01:55:52.694Z,67.36
2024-04-06T01:58:19.232Z,67.36
2024-04-06T02:00:45.800Z,67.55
2024-04-06T02:03:12.434Z,67.53
2024-04-06T02:05:38.970Z,67.50
2024-04-06T02:08:05.719Z,67.75
2024-04-06T02:10:32.314Z,67.73
2024-04-06T02:12:58.956Z,67.60
2024-04-06T02:15:25.597Z,67.68
2024-04-06T02:17:53.634Z,67.58
2024-04-06T02:20:20.197Z,67.64
2024-04-06T02:22:46.827Z,67.50
2024-04-06T02:25:13.522Z,67.67
2024-04-06T02:27:40.066Z,67.64
2024-04-06T02:30:07.960Z,67.88
2024-04-06T02:32:34.548Z,67.73
2024-04-06T02:35:01.407Z,67.84
2024-04-06T02:37:28.012Z,67.77
2024-04-06T02:39:54.622Z,67.90
2024-04-06T02:42:21.199Z,67.74
2024-04-06T02:44:47.807Z,67.68
2024-04-06T02:47:14.542Z,67.74
2024-04-06T02:49:41.134Z,67.78
2024-04-06T02:52:08.318Z,67.94
2024-04-06T02:54:34.965Z,67.89
2024-04-06T02:57:01.583Z,67.94
2024-04-06T02:59:28.238Z,67.93
2024-04-06T03:01:54.881Z,67.86
2024-04-06T03:04:21.425Z,67.96
2024-04-06T03:06:48.058Z,67.98
2024-04-06T03:09:14.807Z,68.02
2024-04-06T03:11:43.454Z,68.10
2024-04-06T03:14:10.143Z,68.11
2024-04-06T03:16:36.722Z,68.05
2024-04-06T03:19:04.365Z,68.01
2024-04-06T03:21:30.981Z,68.03
2024-04-06T03:23:57.557Z,68.01
2024-04-06T03:26:24.089Z,68.16
2024-04-06T03:28:52.680Z,68.06
2024-04-06T03:31:19.719Z,68.02
2024-04-06T03:33:46.295Z,68.06
2024-04-06T03:36:12.886Z,68.04
2024-04-06T03:38:39.455Z,68.28
2024-04-06T03:41:06.121Z,68.29
2024-04-06T03:43:32.753Z,68.29
2024-04-06T03:45:59.712Z,68.30
2024-04-06T03:48:27.326Z,68.44
2024-04-06T03:50:53.881Z,68.40
2024-04-06T03:53:31.231Z,68.30
2024-04-06T03:55:57.845Z,68.39
2024-04-06T03:58:24.617Z,68.32
2024-04-06T04:00:51.486Z,68.43
2024-04-06T04:03:18.107Z,68.57
2024-04-06T04:05:44.924Z,68.49
2024-04-06T04:08:11.520Z,68.43
2024-04-06T04:10:38.127Z,68.47
2024-04-06T04:13:10.832Z,68.61
2024-04-06T04:15:41.647Z,68.59
2024-04-06T04:18:09.236Z,68.58
2024-04-06T04:20:36.484Z,68.46
2024-04-06T04:23:03.671Z,68.37
2024-04-06T04:25:31.029Z,68.35
2024-04-06T04:27:59.081Z,68.31
2024-04-06T04:30:25.825Z,68.24
2024-04-06T04:32:53.093Z,68.31
2024-04-06T04:35:20.554Z,68.07
2024-04-06T04:37:47.249Z,67.85
2024-04-06T04:40:14.148Z,67.64
2024-04-06T04:42:40.980Z,67.48
2024-04-06T04:45:13.673Z,67.40
2024-04-06T04:47:40.744Z,67.34
2024-04-06T04:50:10.075Z,67.57
2024-04-06T04:52:37.105Z,68.14
2024-04-06T04:55:05.470Z,68.51
2024-04-06T04:57:32.282Z,68.46
2024-04-06T04:59:58.919Z,68.06
2024-04-06T05:02:26.033Z,68.29
2024-04-06T05:04:53.069Z,69.04
2024-04-06T05:07:20.826Z,68.91
2024-04-06T05:09:48.231Z,68.78
2024-04-06T05:12:15.663Z,68.39
2024-04-06T05:14:42.454Z,68.32
2024-04-06T05:17:09.048Z,68.09
2024-04-06T05:19:36.309Z,67.89
2024-04-06T05:22:03.210Z,67.84
2024-04-06T05:24:30.215Z,67.75
2024-04-06T05:26:57.717Z,67.55
2024-04-06T05:29:24.341Z,67.49
2024-04-06T05:31:53.209Z,67.26
2024-04-06T05:34:19.776Z,67.17
2024-04-06T05:36:47.353Z,67.04
2024-04-06T05:39:13.914Z,67.09
2024-04-06T05:41:40.433Z,66.81
2024-04-06T05:44:07.671Z,66.79
2024-04-06T05:46:34.353Z,67.03
2024-04-06T05:49:01.586Z,67.11
2024-04-06T05:51:29.148Z,67.10
2024-04-06T05:53:56.026Z,67.03
2024-04-06T05:56:22.684Z,67.22
2024-04-06T05:58:49.303Z,67.27
2024-04-06T06:01:15.903Z,67.25
2024-04-06T06:03:43.754Z,67.14
2024-04-06T06:06:11.626Z,67.15
2024-04-06T06:08:38.872Z,66.96
2024-04-06T06:11:06.111Z,66.74
2024-04-06T06:13:33.872Z,66.31
2024-04-06T06:16:03.287Z,65.95
2024-04-06T06:18:30.229Z,65.59
2024-04-06T06:20:56.827Z,65.17
2024-04-06T06:23:23.428Z,64.68
2024-04-06T06:25:49.948Z,64.35
2024-04-06T06:28:17.045Z,64.15
2024-04-06T06:30:44.021Z,63.70
2024-04-06T06:33:10.675Z,63.20
2024-04-06T06:37:52.812Z,62.99
2024-04-06T06:38:26.264Z,62.74
2024-04-06T06:40:54.203Z,62.76
2024-04-06T06:43:21.772Z,62.59
2024-04-06T06:45:48.367Z,62.31
2024-04-06T06:48:14.962Z,62.20
2024-04-06T06:50:41.690Z,61.91
2024-04-06T06:53:08.359Z,61.62
2024-04-06T06:55:34.923Z,61.63
2024-04-06T06:58:01.568Z,62.03
2024-04-06T07:00:28.243Z,61.41
2024-04-06T07:02:54.841Z,61.23
2024-04-06T07:05:21.404Z,62.12
2024-04-06T07:07:56.461Z,61.52
2024-04-06T07:10:23.045Z,62.30
2024-04-06T07:12:49.651Z,62.74
2024-04-06T07:15:16.350Z,63.03
2024-04-06T07:17:43.225Z,62.63
2024-04-06T07:20:10.182Z,62.71
2024-04-06T07:22:36.865Z,62.73
2024-04-06T07:25:04.029Z,62.89
2024-04-06T07:27:30.763Z,62.05
2024-04-06T07:29:57.446Z,61.34
2024-04-06T07:32:24.029Z,60.89
2024-04-06T07:34:50.598Z,60.29
2024-04-06T07:37:17.227Z,60.90
2024-04-06T07:39:43.815Z,61.44
2024-04-06T07:42:10.415Z,61.33
2024-04-06T07:44:36.946Z,60.74
2024-04-06T07:47:03.713Z,60.28
2024-04-06T07:49:30.475Z,60.16
2024-04-06T07:51:57.076Z,59.38
2024-04-06T07:54:23.645Z,59.44
2024-04-06T07:56:50.242Z,59.55
2024-04-06T07:59:16.828Z,59.12
2024-04-06T08:01:43.384Z,59.25
2024-04-06T08:04:10.820Z,59.43
2024-04-06T08:06:37.434Z,59.23
2024-04-06T08:09:04.519Z,59.21
2024-04-06T08:11:31.441Z,59.86
2024-04-06T08:13:59.067Z,60.03
2024-04-06T08:16:26.584Z,59.48
2024-04-06T08:18:53.395Z,58.53
2024-04-06T08:21:19.995Z,58.32
2024-04-06T08:23:46.682Z,58.54
2024-04-06T08:26:13.278Z,57.59
2024-04-06T08:28:39.800Z,57.82
2024-04-06T08:31:06.456Z,57.89
2024-04-06T08:33:33.095Z,57.68
2024-04-06T08:36:01.126Z,57.28
2024-04-06T08:38:27.817Z,57.20
2024-04-06T08:40:54.482Z,57.19
2024-04-06T08:43:23.169Z,57.50
2024-04-06T08:45:51.453Z,57.11
2024-04-06T08:48:20.442Z,56.90
2024-04-06T08:50:47.474Z,56.97
2024-04-06T08:53:14.069Z,56.57
2024-04-06T08:55:41.451Z,56.15
2024-04-06T08:58:08.153Z,56.48
2024-04-06T09:00:39.136Z,56.35
2024-04-06T09:03:06.394Z,55.83
2024-04-06T09:05:32.972Z,55.84
2024-04-06T09:07:59.560Z,55.59
2024-04-06T09:10:26.767Z,55.93
2024-04-06T09:12:53.373Z,55.32
2024-04-06T09:15:19.967Z,54.92
2024-04-06T09:17:46.754Z,54.74
2024-04-06T09:20:15.101Z,54.11
2024-04-06T09:22:43.376Z,53.78
2024-04-06T09:25:10.266Z,54.51
2024-04-06T09:27:44.064Z,54.27
2024-04-06T09:30:12.203Z,54.54
2024-04-06T09:32:40.984Z,53.04
2024-04-06T09:35:09.138Z,52.55
2024-04-06T09:37:39.073Z,52.17
2024-04-06T09:40:09.903Z,52.93
2024-04-06T09:42:39.489Z,52.85
2024-04-06T09:45:08.306Z,53.09
2024-04-06T09:47:36.270Z,52.05
2024-04-06T09:50:03.803Z,52.08
2024-04-06T09:52:30.872Z,51.52
2024-04-06T09:54:57.973Z,52.37
2024-04-06T09:57:24.809Z,52.06
2024-04-06T10:00:22.227Z,52.30
2024-04-06T10:02:51.860Z,51.33
2024-04-06T10:05:18.493Z,51.79
2024-04-06T10:07:53.403Z,51.87
2024-04-06T10:10:30.371Z,51.25
2024-04-06T10:12:57.265Z,50.54
2024-04-06T10:15:24.310Z,51.22
2024-04-06T10:17:54.021Z,50.77
2024-04-06T10:20:25.031Z,49.07
2024-04-06T10:22:56.685Z,48.58
2024-04-06T10:25:30.332Z,48.53
2024-04-06T10:28:10.385Z,48.01
2024-04-06T10:30:41.328Z,47.16
2024-04-06T10:33:09.388Z,46.96
2024-04-06T10:35:36.145Z,46.63
2024-04-06T10:38:04.044Z,45.65
2024-04-06T10:40:35.426Z,45.36
2024-04-06T10:43:06.129Z,44.95
2024-04-06T10:45:33.931Z,44.90
2024-04-06T10:48:02.251Z,44.63
2024-04-06T10:50:29.053Z,43.38
2024-04-06T10:52:55.791Z,44.37
2024-04-06T10:55:22.542Z,42.46
2024-04-06T10:57:49.355Z,43.09
2024-04-06T11:00:19.007Z,44.02
2024-04-06T11:02:45.907Z,42.60
2024-04-06T11:05:12.459Z,43.10
2024-04-06T11:07:40.188Z,42.93
2024-04-06T11:10:08.915Z,43.04
2024-04-06T11:12:40.638Z,41.66
2024-04-06T11:15:08.757Z,42.12
2024-04-06T11:17:36.294Z,42.57
2024-04-06T11:20:04.974Z,42.90
2024-04-06T11:22:31.676Z,42.59
2024-04-06T11:24:58.428Z,42.66
2024-04-06T11:27:28.435Z,42.42
2024-04-06T11:29:56.088Z,42.74
2024-04-06T11:32:24.677Z,42.32
2024-04-06T11:34:53.026Z,42.38
2024-04-06T11:37:22.105Z,41.81
2024-04-06T11:39:50.630Z,41.74
2024-04-06T11:42:21.384Z,41.58
2024-04-06T11:44:47.972Z,41.52
2024-04-06T11:47:14.913Z,41.69
2024-04-06T11:49:41.516Z,40.76
2024-04-06T11:52:08.253Z,40.84
2024-04-06T11:54:35.221Z,40.20
2024-04-06T11:57:01.842Z,40.82
2024-04-06T11:59:28.647Z,41.12
2024-04-06T12:01:55.739Z,40.91
2024-04-06T12:04:22.674Z,41.15
2024-04-06T12:06:49.917Z,42.00
2024-04-06T12:09:17.482Z,42.01
2024-04-06T12:11:44.167Z,42.03
2024-04-06T12:14:10.858Z,41.99
2024-04-06T12:16:37.508Z,42.21
2024-04-06T12:19:04.184Z,41.91
2024-04-06T12:21:30.878Z,41.58
2024-04-06T12:23:57.586Z,40.03
2024-04-06T12:26:24.156Z,40.98
2024-04-06T12:28:50.805Z,41.17
2024-04-06T12:31:18.802Z,40.61
2024-04-06T12:33:45.417Z,39.86
2024-04-06T12:36:12.543Z,39.96
2024-04-06T12:38:39.130Z,40.70
2024-04-06T12:41:06.233Z,41.49
2024-04-06T12:43:32.928Z,40.41
2024-04-06T12:46:02.402Z,40.57
2024-04-06T12:48:29.564Z,41.35
2024-04-06T12:50:56.615Z,40.02
2024-04-06T12:53:23.232Z,39.98
2024-04-06T12:55:50.467Z,41.10
2024-04-06T12:58:17.522Z,41.02
2024-04-06T13:00:45.003Z,41.78
2024-04-06T13:03:11.589Z,41.86
2024-04-06T13:05:38.256Z,41.44
2024-04-06T13:08:05.804Z,41.31
2024-04-06T13:10:32.454Z,41.20
2024-04-06T13:12:59.051Z,40.58
2024-04-06T13:15:25.583Z,40.42
2024-04-06T13:17:52.158Z,40.56
2024-04-06T13:20:18.821Z,40.53
2024-04-06T13:22:46.073Z,40.92
2024-04-06T13:25:13.239Z,41.22
2024-04-06T13:27:40.098Z,41.01
2024-04-06T13:30:09.083Z,41.81
2024-04-06T13:32:36.278Z,41.99
2024-04-06T13:35:05.951Z,42.21
2024-04-06T13:37:33.637Z,42.47
2024-04-06T13:40:01.283Z,41.31
2024-04-06T13:42:27.852Z,41.89
2024-04-06T13:44:54.689Z,41.68
2024-04-06T13:47:21.989Z,41.73
2024-04-06T13:49:49.776Z,41.49
2024-04-06T13:52:17.670Z,41.96
2024-04-06T13:54:44.477Z,42.01
2024-04-06T13:57:11.200Z,41.83
2024-04-06T13:59:37.835Z,42.34
2024-04-06T14:02:04.967Z,42.33
2024-04-06T14:04:31.869Z,42.66
2024-04-06T14:06:58.507Z,42.40
2024-04-06T14:09:26.438Z,41.73
2024-04-06T14:11:56.132Z,41.88
2024-04-06T14:14:23.882Z,42.45
2024-04-06T14:16:52.640Z,42.83
2024-04-06T14:19:23.613Z,43.26
2024-04-06T14:21:51.431Z,43.12
2024-04-06T14:24:18.660Z,43.39
2024-04-06T14:26:47.457Z,43.78
2024-04-06T14:29:14.369Z,44.11
2024-04-06T14:31:40.989Z,44.14
2024-04-06T14:34:08.747Z,43.68
2024-04-06T14:36:36.590Z,43.77
2024-04-06T14:39:04.190Z,43.13
2024-04-06T14:41:31.580Z,42.84
2024-04-06T14:43:58.139Z,43.47
2024-04-06T14:46:25.357Z,43.65
2024-04-06T14:48:52.825Z,44.26
2024-04-06T14:51:20.453Z,44.61
2024-04-06T14:53:47.084Z,44.88
2024-04-06T14:56:13.650Z,44.70
2024-04-06T14:58:40.310Z,44.60
2024-04-06T15:01:07.408Z,44.96
2024-04-06T15:03:34.156Z,45.47
2024-04-06T15:06:01.390Z,44.95
2024-04-06T15:08:28.059Z,45.05
2024-04-06T15:10:54.731Z,45.01
2024-04-06T15:13:21.339Z,45.09
2024-04-06T15:15:48.206Z,45.12
2024-04-06T15:18:14.863Z,45.35
2024-04-06T15:20:41.516Z,45.32
2024-04-06T15:23:09.355Z,45.05
2024-04-06T15:25:36.043Z,45.26
2024-04-06T15:28:02.667Z,45.50
2024-04-06T15:30:29.354Z,45.85
2024-04-06T15:32:55.956Z,46.63
2024-04-06T15:35:22.532Z,46.35
2024-04-06T15:37:49.159Z,46.41
2024-04-06T15:40:15.960Z,46.25
2024-04-06T15:42:42.614Z,46.90
2024-04-06T15:45:09.149Z,46.79
2024-04-06T15:47:36.026Z,46.39
2024-04-06T15:50:02.871Z,47.11
2024-04-06T15:52:29.604Z,47.28
2024-04-06T15:54:56.848Z,47.14
2024-04-06T15:57:23.435Z,47.22
2024-04-06T15:59:50.267Z,47.26
2024-04-06T16:02:17.219Z,47.14
2024-04-06T16:04:44.005Z,47.29
2024-04-06T16:07:11.056Z,47.18
2024-04-06T16:09:37.683Z,47.25
2024-04-06T16:12:05.954Z,47.19
2024-04-06T16:14:32.520Z,46.96
2024-04-06T16:16:59.196Z,46.95
2024-04-06T16:19:26.202Z,47.30
2024-04-06T16:21:52.972Z,47.14
2024-04-06T16:24:19.574Z,47.21
2024-04-06T16:26:46.198Z,47.41
2024-04-06T16:29:13.236Z,47.81
2024-04-06T16:31:40.074Z,48.13
2024-04-06T16:34:06.698Z,48.44
2024-04-06T16:36:33.381Z,49.07
2024-04-06T16:39:00.059Z,49.53
2024-04-06T16:41:26.910Z,49.51
2024-04-06T16:43:53.477Z,49.73
2024-04-06T16:46:20.096Z,50.39
2024-04-06T16:48:46.635Z,50.47
2024-04-06T16:51:13.285Z,50.04
2024-04-06T16:53:41.766Z,50.62
2024-04-06T16:56:08.354Z,50.90
2024-04-06T16:58:34.913Z,51.35
2024-04-06T17:01:02.366Z,51.35
2024-04-06T17:03:30.210Z,51.75
2024-04-06T17:05:57.019Z,52.14
2024-04-06T17:08:23.652Z,52.21
2024-04-06T17:10:50.521Z,52.71
2024-04-06T17:13:17.147Z,53.13
2024-04-06T17:15:43.735Z,53.27
2024-04-06T17:18:11.462Z,53.13
2024-04-06T17:20:38.132Z,53.32
2024-04-06T17:23:08.936Z,53.88
2024-04-06T17:25:36.032Z,54.29
2024-04-06T17:28:02.809Z,54.20
2024-04-06T17:30:30.146Z,54.24
2024-04-06T17:32:57.458Z,54.29
2024-04-06T17:35:24.218Z,54.47
2024-04-06T17:37:50.740Z,54.36
2024-04-06T17:40:17.947Z,54.46
2024-04-06T17:42:45.119Z,54.37
2024-04-06T17:45:11.976Z,54.52
2024-04-06T17:47:38.633Z,54.67
2024-04-06T17:50:05.376Z,54.75
2024-04-06T17:52:32.147Z,54.88
2024-04-06T17:54:58.836Z,54.95
2024-04-06T17:57:25.518Z,55.18
2024-04-06T17:59:52.038Z,55.36
2024-04-06T18:02:21.503Z,55.65
2024-04-06T18:04:48.148Z,55.90
2024-04-06T18:07:14.787Z,55.95
2024-04-06T18:09:41.643Z,55.90
2024-04-06T18:12:08.526Z,55.96
2024-04-06T18:14:35.682Z,56.21
2024-04-06T18:17:02.316Z,56.26
2024-04-06T18:19:28.858Z,56.57
2024-04-06T18:21:55.470Z,56.59
2024-04-06T18:24:22.859Z,56.71
2024-04-06T18:26:49.515Z,56.72
2024-04-06T18:29:16.519Z,56.73
2024-04-06T18:31:43.166Z,56.73
2024-04-06T18:34:09.687Z,56.58
2024-04-06T18:36:36.372Z,56.45
2024-04-06T18:39:03.018Z,56.44
2024-04-06T18:41:29.623Z,56.48
2024-04-06T18:43:56.235Z,56.47
2024-04-06T18:46:22.822Z,56.47
2024-04-06T18:48:49.434Z,56.38
2024-04-06T18:51:17.476Z,56.40
2024-04-06T18:53:44.211Z,56.49
2024-04-06T18:56:10.813Z,56.52
2024-04-06T18:58:37.424Z,56.29
2024-04-06T19:01:04.450Z,56.31
2024-04-06T19:03:31.042Z,56.42
2024-04-06T19:05:57.702Z,56.53
2024-04-06T19:08:24.249Z,56.77
2024-04-06T19:10:50.803Z,56.82
2024-04-06T19:13:17.458Z,57.08
2024-04-06T19:15:44.648Z,57.09
2024-04-06T19:18:11.228Z,57.20
2024-04-06T19:20:37.821Z,57.40
2024-04-06T19:23:04.763Z,57.26
2024-04-06T19:25:36.695Z,57.35
2024-04-06T19:28:04.779Z,57.27
2024-04-06T19:30:32.136Z,57.40
2024-04-06T19:32:59.017Z,57.49
2024-04-06T19:35:25.643Z,57.50
2024-04-06T19:37:52.226Z,57.82
2024-04-06T19:40:19.595Z,57.94
2024-04-06T19:42:46.262Z,58.02
2024-04-06T19:45:15.504Z,58.02
2024-04-06T19:47:42.107Z,57.66
2024-04-06T19:50:08.744Z,57.69
2024-04-06T19:52:35.882Z,57.79
2024-04-06T19:55:05.821Z,57.58
2024-04-06T19:57:33.594Z,57.76
2024-04-06T20:00:00.236Z,57.62
2024-04-06T20:02:27.911Z,57.81
2024-04-06T20:04:54.471Z,57.71
2024-04-06T20:07:21.480Z,57.60
2024-04-06T20:09:48.009Z,57.40
2024-04-06T20:12:15.068Z,57.85
2024-04-06T20:14:41.707Z,58.88
2024-04-06T20:17:08.381Z,58.85
2024-04-06T20:19:34.991Z,59.06
2024-04-06T20:22:20.286Z,58.82
2024-04-06T20:25:05.456Z,58.96
2024-04-06T20:27:32.009Z,58.64
2024-04-06T20:29:58.628Z,58.48
2024-04-06T20:32:25.367Z,58.30
2024-04-06T20:34:51.910Z,58.25
2024-04-06T20:37:19.828Z,57.96
2024-04-06T20:39:46.353Z,57.98
2024-04-06T20:42:14.754Z,57.92
2024-04-06T20:44:44.207Z,57.82
2024-04-06T20:47:10.802Z,57.91
2024-04-06T20:49:37.408Z,57.68
2024-04-06T20:52:04.392Z,57.44
2024-04-06T20:54:31.398Z,57.37
2024-04-06T20:56:58.293Z,57.31
2024-04-06T20:59:25.263Z,57.23
2024-04-06T21:01:52.180Z,57.17
2024-04-06T21:04:18.741Z,57.26
2024-04-06T21:06:45.308Z,57.26
2024-04-06T21:09:12.099Z,57.33
2024-04-06T21:11:38.840Z,57.32
2024-04-06T21:14:06.684Z,57.30
2024-04-06T21:16:33.277Z,57.22
2024-04-06T21:18:59.910Z,57.15
2024-04-06T21:21:26.571Z,57.20
2024-04-06T21:23:53.209Z,57.07
2024-04-06T21:26:19.751Z,57.18
2024-04-06T21:28:46.457Z,57.16
2024-04-06T21:31:13.053Z,57.00
2024-04-06T21:33:39.635Z,57.01
2024-04-06T21:36:06.430Z,57.05
2024-04-06T21:38:33.048Z,57.02
2024-04-06T21:41:04.305Z,57.05
2024-04-06T21:43:31.163Z,57.16
2024-04-06T21:45:57.778Z,57.48
2024-04-06T21:48:25.354Z,57.87
2024-04-06T21:50:55.350Z,57.71
2024-04-06T21:53:22.123Z,58.07
2024-04-06T21:55:51.611Z,58.42
2024-04-06T21:58:19.258Z,58.46
2024-04-06T22:00:45.889Z,58.09
2024-04-06T22:03:13.783Z,57.77
2024-04-06T22:05:40.589Z,57.52
2024-04-06T22:08:07.454Z,57.61
2024-04-06T22:10:35.427Z,57.72
2024-04-06T22:13:02.125Z,57.49
2024-04-06T22:15:28.793Z,57.36
2024-04-06T22:17:55.388Z,57.39
2024-04-06T22:20:24.069Z,57.16
2024-04-06T22:22:50.703Z,57.28
2024-04-06T22:25:17.476Z,57.30
2024-04-06T22:27:44.028Z,57.29
2024-04-06T22:30:10.873Z,57.33
2024-04-06T22:32:37.812Z,57.42
2024-04-06T22:35:05.899Z,57.32
2024-04-06T22:37:32.476Z,57.26
2024-04-06T22:39:59.021Z,57.13
2024-04-06T22:42:25.623Z,57.14
2024-04-06T22:44:52.397Z,57.30
2024-04-06T22:47:19.404Z,57.45
2024-04-06T22:49:46.079Z,57.52
2024-04-06T22:52:12.817Z,57.41
2024-04-06T22:54:39.624Z,57.57
2024-04-06T22:57:06.354Z,57.51
2024-04-06T22:59:33.609Z,57.46
2024-04-06T23:02:00.274Z,57.47
2024-04-06T23:04:27.518Z,57.62
2024-04-06T23:06:54.427Z,57.65
2024-04-06T23:09:21.122Z,57.80
2024-04-06T23:11:47.697Z,57.86
2024-04-06T23:14:14.421Z,57.82
2024-04-06T23:16:41.083Z,57.79
2024-04-06T23:19:07.712Z,57.88
2024-04-06T23:21:34.263Z,57.81
2024-04-06T23:24:00.902Z,57.71
2024-04-06T23:26:27.470Z,57.73
2024-04-06T23:28:54.005Z,57.71
2024-04-06T23:31:20.522Z,57.67
2024-04-06T23:33:47.218Z,57.58
2024-04-06T23:36:13.839Z,57.53
2024-04-06T23:38:40.358Z,57.68
2024-04-06T23:41:06.906Z,57.73
2024-04-06T23:43:33.549Z,57.89
2024-04-06T23:46:03.738Z,58.02
2024-04-06T23:48:30.590Z,58.06
2024-04-06T23:50:57.566Z,58.25
2024-04-06T23:53:24.356Z,58.26
2024-04-06T23:55:50.902Z,58.42
2024-04-06T23:58:17.591Z,58.48
